Time;durP1;ratioP1;P1;durP2;ratioP2;P2;SDS_P1;SDS_P2;PMS_P1;PMS_P2;Temp;Humidity;BMP_temperature;BMP_pressure;BME280_temperature;BME280_humidity;BME280_pressure;Samples;Min_cycle;Max_cycle;Signal;HPM_P1;HPM_P2
2023/12/18 00:01:08;;;;;;;19.08;7.22;;;;;;;;;;5028491;28;20059;-93
2023/12/18 00:03:43;;;;;;;21.05;7.00;;;;;;;;;;5027888;28;20104;-91
2023/12/18 00:06:24;;;;;;;16.88;6.93;;;;;;;;;;5027169;28;20057;-92
2023/12/18 00:08:57;;;;;;;17.80;6.32;;;;;;;;;;5044906;28;20052;-91
2023/12/18 00:11:26;;;;;;;16.98;7.35;;;;;;;;;;5027680;28;20067;-91
2023/12/18 00:13:57;;;;;;;27.55;6.93;;;;;;;;;;5028300;28;20076;-92
2023/12/18 00:16:40;;;;;;;15.80;6.43;;;;;;;;;;5043689;28;20072;-92
2023/12/18 00:19:21;;;;;;;18.65;7.65;;;;;;;;;;5029006;28;20065;-92
2023/12/18 00:21:54;;;;;;;17.60;6.03;;;;;;;;;;5044556;28;20076;-92
2023/12/18 00:24:27;;;;;;;24.23;7.47;;;;;;;;;;5043766;28;20119;-92
2023/12/18 00:26:59;;;;;;;20.95;7.07;;;;;;;;;;5027418;28;20048;-91
2023/12/18 00:29:36;;;;;;;24.73;7.57;;;;;;;;;;5026957;28;20053;-93
2023/12/18 00:32:18;;;;;;;25.98;7.15;;;;;;;;;;5027382;28;20241;-92
2023/12/18 00:34:49;;;;;;;18.95;6.65;;;;;;;;;;5026114;28;20156;-91
2023/12/18 00:37:22;;;;;;;23.27;7.25;;;;;;;;;;5027812;28;20064;-91
2023/12/18 00:39:59;;;;;;;15.30;6.45;;;;;;;;;;5028917;28;20049;-91
2023/12/18 00:42:36;;;;;;;25.20;7.78;;;;;;;;;;5029574;28;20037;-92
2023/12/18 00:45:10;;;;;;;16.20;7.45;;;;;;;;;;5028666;28;20053;-92
2023/12/18 00:47:40;;;;;;;18.33;7.47;;;;;;;;;;5027773;28;20460;-92
2023/12/18 00:50:10;;;;;;;13.40;6.07;;;;;;;;;;5027554;28;20057;-93
2023/12/18 00:52:44;;;;;;;20.48;6.35;;;;;;;;;;5027440;28;20397;-93
2023/12/18 00:55:18;;;;;;;24.58;7.93;;;;;;;;;;5043855;28;20375;-91
2023/12/18 00:57:51;;;;;;;16.50;7.63;;;;;;;;;;5028072;28;20053;-92
2023/12/18 01:00:23;;;;;;;26.13;8.07;;;;;;;;;;5028120;28;20053;-93
2023/12/18 01:02:51;;;;;;;21.83;7.88;;;;;;;;;;5027733;28;20076;-92
2023/12/18 01:05:24;;;;;;;15.90;6.80;;;;;;;;;;5028612;28;20085;-92
2023/12/18 01:08:08;;;;;;;19.60;7.38;;;;;;;;;;5028594;28;20050;-92
2023/12/18 01:10:39;;;;;;;16.30;7.32;;;;;;;;;;5030804;28;20037;-93
2023/12/18 01:13:10;;;;;;;16.80;7.55;;;;;;;;;;5032213;28;20053;-92
2023/12/18 01:15:40;;;;;;;16.50;7.82;;;;;;;;;;5045042;28;20097;-92
2023/12/18 01:18:08;;;;;;;20.35;7.82;;;;;;;;;;5027533;28;20059;-92
2023/12/18 01:20:49;;;;;;;15.60;7.88;;;;;;;;;;5028941;28;20097;-92
2023/12/18 01:23:21;;;;;;;26.20;7.65;;;;;;;;;;5028095;28;20100;-92
2023/12/18 01:25:48;;;;;;;25.67;7.93;;;;;;;;;;5027695;28;20123;-92
2023/12/18 01:28:16;;;;;;;23.00;8.45;;;;;;;;;;5029483;28;20096;-91
2023/12/18 01:30:49;;;;;;;30.38;9.40;;;;;;;;;;5028658;28;20045;-91
2023/12/18 01:33:30;;;;;;;26.58;8.27;;;;;;;;;;5032749;28;20036;-91
2023/12/18 01:36:02;;;;;;;21.35;7.97;;;;;;;;;;5049977;28;20106;-91
2023/12/18 01:38:43;;;;;;;24.80;6.70;;;;;;;;;;5033829;28;20055;-91
2023/12/18 01:41:13;;;;;;;20.30;7.88;;;;;;;;;;5033418;28;20053;-92
2023/12/18 01:43:51;;;;;;;26.13;9.20;;;;;;;;;;5034294;28;20060;-91
2023/12/18 01:46:27;;;;;;;18.02;8.23;;;;;;;;;;5033932;28;20049;-91
2023/12/18 01:49:08;;;;;;;23.45;8.23;;;;;;;;;;5034042;28;20037;-91
2023/12/18 01:51:42;;;;;;;17.02;8.23;;;;;;;;;;5033885;28;20048;-91
2023/12/18 01:54:12;;;;;;;29.85;8.05;;;;;;;;;;5204972;22;20113;-90
2023/12/18 01:56:47;;;;;;;22.98;8.55;;;;;;;;;;5033941;28;20040;-91
2023/12/18 01:59:19;;;;;;;24.92;8.57;;;;;;;;;;5030127;28;20049;-91
2023/12/18 02:02:00;;;;;;;32.05;8.57;;;;;;;;;;5032529;28;20050;-91
2023/12/18 02:04:44;;;;;;;18.80;8.25;;;;;;;;;;5041307;28;20100;-90
2023/12/18 02:07:40;;;;;;;24.17;8.43;;;;;;;;;;5027475;28;20060;-91
2023/12/18 02:13:17;;;;;;;29.02;8.48;;;;;;;;;;5139415;22;20087;-91
2023/12/18 02:15:49;;;;;;;29.17;8.45;;;;;;;;;;5061338;28;20067;-91
2023/12/18 02:18:21;;;;;;;25.40;8.73;;;;;;;;;;5048078;28;20053;-91
2023/12/18 02:21:04;;;;;;;31.02;9.43;;;;;;;;;;5046894;28;20041;-92
2023/12/18 02:23:45;;;;;;;37.53;8.82;;;;;;;;;;5047327;28;20382;-91
2023/12/18 02:30:01;;;;;;;18.35;9.10;;;;;;;;;;5063630;28;20056;-90
2023/12/18 02:32:31;;;;;;;36.15;8.88;;;;;;;;;;5049995;28;20054;-91
2023/12/18 02:35:15;;;;;;;26.77;10.30;;;;;;;;;;5054986;28;20037;-90
2023/12/18 02:37:57;;;;;;;26.65;9.65;;;;;;;;;;5051445;28;20080;-92
2023/12/18 02:40:48;;;;;;;25.02;8.65;;;;;;;;;;5049200;28;20055;-92
2023/12/18 02:43:18;;;;;;;29.73;8.63;;;;;;;;;;5049717;28;20059;-91
2023/12/18 02:45:48;;;;;;;21.73;7.43;;;;;;;;;;5048798;28;20049;-91
2023/12/18 02:48:29;;;;;;;21.70;8.07;;;;;;;;;;5050849;28;20041;-92
2023/12/18 02:51:10;;;;;;;19.77;9.38;;;;;;;;;;5050603;28;20043;-91
2023/12/18 02:53:51;;;;;;;16.63;7.43;;;;;;;;;;5051912;28;20063;-91
2023/12/18 02:56:20;;;;;;;26.13;8.85;;;;;;;;;;5049684;28;20049;-91
2023/12/18 02:58:50;;;;;;;23.25;10.05;;;;;;;;;;5048942;28;20079;-92
2023/12/18 03:01:35;;;;;;;30.83;10.05;;;;;;;;;;5046755;28;20071;-92
2023/12/18 03:04:19;;;;;;;20.73;9.10;;;;;;;;;;5049096;28;20056;-92
2023/12/18 03:06:51;;;;;;;26.42;9.27;;;;;;;;;;5048327;28;20048;-91
2023/12/18 03:09:32;;;;;;;22.23;8.95;;;;;;;;;;5050419;28;20049;-91
2023/12/18 03:12:07;;;;;;;28.40;9.35;;;;;;;;;;5048805;28;20356;-92
2023/12/18 03:14:53;;;;;;;23.88;9.48;;;;;;;;;;5044920;28;20080;-92
2023/12/18 03:17:33;;;;;;;25.20;8.75;;;;;;;;;;5044783;28;20105;-92
2023/12/18 03:20:19;;;;;;;24.13;9.45;;;;;;;;;;5101167;22;20115;-91
2023/12/18 03:23:05;;;;;;;26.55;9.73;;;;;;;;;;5027960;28;20053;-90
2023/12/18 03:25:48;;;;;;;22.05;10.23;;;;;;;;;;5032881;28;20045;-91
2023/12/18 03:28:30;;;;;;;27.80;10.60;;;;;;;;;;5044265;28;20060;-91
2023/12/18 03:31:02;;;;;;;21.92;9.75;;;;;;;;;;5028500;28;20049;-91
2023/12/18 03:33:43;;;;;;;29.13;9.82;;;;;;;;;;5029056;28;20045;-91
2023/12/18 03:36:27;;;;;;;36.35;10.02;;;;;;;;;;5029475;28;20115;-92
2023/12/18 03:39:08;;;;;;;22.17;11.07;;;;;;;;;;5027308;28;20356;-91
2023/12/18 03:41:49;;;;;;;29.25;9.55;;;;;;;;;;5028965;28;20049;-91
2023/12/18 03:44:31;;;;;;;32.58;8.60;;;;;;;;;;5043303;28;20072;-91
2023/12/18 03:47:12;;;;;;;22.88;9.45;;;;;;;;;;5030382;28;20037;-91
2023/12/18 03:49:52;;;;;;;30.63;10.80;;;;;;;;;;5029573;28;20082;-91
2023/12/18 03:52:33;;;;;;;26.73;10.18;;;;;;;;;;5027811;28;20068;-91
2023/12/18 03:55:14;;;;;;;25.35;10.02;;;;;;;;;;5028508;28;20326;-92
2023/12/18 03:57:56;;;;;;;27.02;9.75;;;;;;;;;;5047938;28;20049;-91
2023/12/18 04:00:43;;;;;;;34.97;10.73;;;;;;;;;;5043195;28;20057;-90
2023/12/18 04:03:25;;;;;;;32.25;10.18;;;;;;;;;;5042116;28;20107;-90
2023/12/18 04:06:02;;;;;;;28.30;9.90;;;;;;;;;;5043688;28;20143;-91
2023/12/18 04:08:43;;;;;;;29.83;11.70;;;;;;;;;;5027400;28;20182;-90
2023/12/18 04:11:23;;;;;;;23.67;10.60;;;;;;;;;;5044154;28;20053;-91
2023/12/18 04:14:02;;;;;;;30.02;9.93;;;;;;;;;;5029328;28;20045;-91
2023/12/18 04:16:43;;;;;;;35.72;11.35;;;;;;;;;;5028958;28;20105;-91
2023/12/18 04:19:26;;;;;;;33.30;10.73;;;;;;;;;;5042144;28;20115;-91
2023/12/18 04:22:07;;;;;;;23.63;10.73;;;;;;;;;;5026740;28;20058;-92
2023/12/18 04:24:43;;;;;;;31.15;11.18;;;;;;;;;;5022974;28;20321;-92
2023/12/18 04:27:25;;;;;;;33.53;10.65;;;;;;;;;;5008923;28;20053;-92
2023/12/18 04:30:06;;;;;;;24.48;10.93;;;;;;;;;;5008432;28;20108;-90
2023/12/18 04:32:50;;;;;;;34.85;12.45;;;;;;;;;;5022920;28;20057;-92
2023/12/18 04:35:19;;;;;;;27.80;10.85;;;;;;;;;;5024532;28;20090;-91
2023/12/18 04:38:37;;;;;;;25.05;10.70;;;;;;;;;;5024671;28;20396;-91
2023/12/18 04:41:19;;;;;;;31.27;12.80;;;;;;;;;;5020283;28;20060;-91
2023/12/18 04:44:01;;;;;;;30.02;11.55;;;;;;;;;;5021964;28;20233;-90
2023/12/18 04:51:44;;;;;;;26.97;11.67;;;;;;;;;;6147703;22;20016;-91
2023/12/18 04:54:30;;;;;;;28.40;12.27;;;;;;;;;;5039890;28;20140;-91
2023/12/18 04:57:11;;;;;;;35.03;11.73;;;;;;;;;;5041366;28;20045;-90
2023/12/18 04:59:50;;;;;;;28.35;11.85;;;;;;;;;;5040450;28;20433;-90
2023/12/18 05:02:30;;;;;;;28.40;12.05;;;;;;;;;;5039102;28;20052;-90
2023/12/18 05:05:08;;;;;;;36.05;12.00;;;;;;;;;;5040581;28;20077;-91
2023/12/18 05:07:39;;;;;;;37.08;13.75;;;;;;;;;;5041255;28;20061;-91
2023/12/18 05:10:11;;;;;;;36.70;11.85;;;;;;;;;;5042064;28;20063;-91
2023/12/18 05:12:47;;;;;;;38.03;11.65;;;;;;;;;;5025430;28;20266;-91
2023/12/18 05:15:19;;;;;;;30.85;12.82;;;;;;;;;;5029804;28;20076;-92
2023/12/18 05:17:59;;;;;;;27.75;12.40;;;;;;;;;;5043403;28;20437;-90
2023/12/18 05:20:46;;;;;;;27.42;12.40;;;;;;;;;;5028874;28;20037;-91
2023/12/18 05:23:31;;;;;;;41.28;14.63;;;;;;;;;;5046197;28;20037;-91
2023/12/18 05:26:14;;;;;;;36.78;11.75;;;;;;;;;;5044561;28;20048;-92
2023/12/18 05:28:55;;;;;;;25.77;12.40;;;;;;;;;;5043142;28;20080;-91
2023/12/18 05:36:47;;;;;;;28.37;12.57;;;;;;;;;;5859657;22;20084;-91
2023/12/18 05:39:29;;;;;;;33.83;13.65;;;;;;;;;;5044388;28;20049;-91
2023/12/18 05:42:09;;;;;;;28.38;13.15;;;;;;;;;;5047234;28;20442;-90
2023/12/18 05:44:54;;;;;;;32.22;14.82;;;;;;;;;;5060318;28;20052;-90
2023/12/18 05:47:24;;;;;;;27.80;12.85;;;;;;;;;;5045805;28;20045;-92
2023/12/18 05:50:05;;;;;;;41.75;13.20;;;;;;;;;;5045936;28;20053;-92
2023/12/18 05:52:46;;;;;;;50.53;14.15;;;;;;;;;;5047752;28;20033;-92
2023/12/18 05:55:29;;;;;;;36.47;11.32;;;;;;;;;;5050566;28;20045;-92
2023/12/18 05:58:13;;;;;;;26.90;11.82;;;;;;;;;;5051877;28;20142;-91
2023/12/18 06:00:54;;;;;;;33.70;11.52;;;;;;;;;;5047335;28;20136;-90
2023/12/18 06:03:26;;;;;;;42.72;13.38;;;;;;;;;;5048237;28;20072;-91
2023/12/18 06:06:04;;;;;;;33.00;12.55;;;;;;;;;;5066346;28;20084;-91
2023/12/18 06:08:45;;;;;;;33.13;12.32;;;;;;;;;;5048582;28;20049;-90
2023/12/18 06:11:39;;;;;;;34.97;12.75;;;;;;;;;;5063643;28;20056;-90
2023/12/18 06:14:19;;;;;;;31.20;12.88;;;;;;;;;;5050141;28;20079;-90
2023/12/18 06:22:24;;;;;;;33.13;14.17;;;;;;;;;;6010152;22;20024;-91
2023/12/18 06:25:19;;;;;;;25.02;12.38;;;;;;;;;;5032242;28;20045;-91
2023/12/18 06:28:04;;;;;;;31.38;11.90;;;;;;;;;;5031653;28;20049;-92
2023/12/18 06:30:50;;;;;;;27.67;13.00;;;;;;;;;;5092612;22;20049;-90
2023/12/18 06:33:32;;;;;;;33.45;11.55;;;;;;;;;;5050874;28;20035;-90
2023/12/18 06:36:16;;;;;;;34.05;13.07;;;;;;;;;;5062917;28;20055;-90
2023/12/18 06:38:57;;;;;;;37.47;12.77;;;;;;;;;;5058798;28;20083;-90
2023/12/18 06:41:30;;;;;;;32.40;11.68;;;;;;;;;;5051976;28;20413;-91
2023/12/18 06:44:37;;;;;;;37.65;12.35;;;;;;;;;;5050733;28;20036;-92
2023/12/18 06:47:17;;;;;;;32.97;13.48;;;;;;;;;;5047778;28;20040;-91
2023/12/18 06:49:56;;;;;;;34.20;12.80;;;;;;;;;;5046446;28;20057;-90
2023/12/18 06:53:19;;;;;;;25.73;11.73;;;;;;;;;;5059925;28;20413;-90
2023/12/18 06:58:36;;;;;;;31.27;13.50;;;;;;;;;;5039657;22;20310;-90
2023/12/18 07:01:39;;;;;;;30.27;11.65;;;;;;;;;;5018439;28;20034;-90
2023/12/18 07:04:11;;;;;;;31.13;12.45;;;;;;;;;;5003238;28;20108;-90
2023/12/18 07:06:57;;;;;;;30.58;12.40;;;;;;;;;;5000592;28;20081;-90
2023/12/18 07:09:38;;;;;;;25.92;12.15;;;;;;;;;;5005453;28;20046;-91
2023/12/18 07:12:27;;;;;;;;;;;;;;;;;;5007875;28;20073;-90
2023/12/18 07:15:08;;;;;;;25.02;11.25;;;;;;;;;;5004131;28;19973;-90
2023/12/18 07:17:49;;;;;;;24.23;11.43;;;;;;;;;;5008100;28;20414;-91
2023/12/18 07:20:31;;;;;;;28.95;11.25;;;;;;;;;;5001217;28;20072;-90
2023/12/18 07:23:15;;;;;;;43.58;12.43;;;;;;;;;;5004422;28;20201;-91
2023/12/18 07:25:59;;;;;;;42.67;11.63;;;;;;;;;;5004093;28;20065;-91
2023/12/18 07:28:39;;;;;;;32.90;12.13;;;;;;;;;;5003508;28;20054;-91
2023/12/18 07:31:15;;;;;;;27.02;12.70;;;;;;;;;;5002902;28;20053;-90
2023/12/18 07:33:56;;;;;;;32.15;12.38;;;;;;;;;;5004665;28;20048;-90
2023/12/18 07:36:40;;;;;;;22.58;12.15;;;;;;;;;;5003605;28;20101;-90
2023/12/18 07:39:25;;;;;;;28.30;11.45;;;;;;;;;;5004411;28;20060;-91
2023/12/18 07:42:15;;;;;;;26.10;10.82;;;;;;;;;;4994097;28;20046;-90
2023/12/18 07:44:58;;;;;;;32.60;12.00;;;;;;;;;;5015147;28;20045;-91
2023/12/18 07:47:40;;;;;;;31.55;10.93;;;;;;;;;;5007589;28;20042;-91
2023/12/18 07:50:24;;;;;;;21.05;10.60;;;;;;;;;;5001247;28;20133;-89
2023/12/18 07:53:06;;;;;;;22.92;10.57;;;;;;;;;;5004346;28;20157;-90
2023/12/18 07:55:47;;;;;;;32.58;11.05;;;;;;;;;;5000307;28;20053;-90
2023/12/18 07:58:19;;;;;;;31.52;11.13;;;;;;;;;;5024117;28;20061;-90
2023/12/18 08:00:56;;;;;;;46.60;11.18;;;;;;;;;;5028151;28;20041;-91
2023/12/18 08:03:38;;;;;;;33.00;10.52;;;;;;;;;;5024507;28;20042;-89
2023/12/18 08:06:17;;;;;;;26.30;10.27;;;;;;;;;;5023816;28;20071;-90
2023/12/18 08:08:58;;;;;;;31.38;11.52;;;;;;;;;;5024418;28;20101;-91
2023/12/18 08:11:35;;;;;;;29.55;12.07;;;;;;;;;;5024158;28;20064;-91
2023/12/18 08:14:16;;;;;;;32.80;10.98;;;;;;;;;;5023317;28;20041;-90
2023/12/18 08:16:58;;;;;;;17.13;9.85;;;;;;;;;;5024497;28;20149;-90
2023/12/18 08:19:49;;;;;;;25.73;10.05;;;;;;;;;;5038027;28;20045;-90
2023/12/18 08:22:34;;;;;;;31.92;10.80;;;;;;;;;;5037079;28;20049;-91
2023/12/18 08:25:16;;;;;;;30.40;10.75;;;;;;;;;;5022712;28;20060;-91
2023/12/18 08:27:59;;;;;;;23.75;10.38;;;;;;;;;;5026179;28;20131;-90
2023/12/18 08:30:43;;;;;;;33.08;10.45;;;;;;;;;;5025059;28;20045;-90
2023/12/18 08:33:23;;;;;;;30.95;10.15;;;;;;;;;;5023287;28;20108;-90
2023/12/18 08:36:19;;;;;;;30.33;10.50;;;;;;;;;;5037559;28;20041;-91
2023/12/18 08:39:17;;;;;;;32.92;11.40;;;;;;;;;;5082829;22;20218;-91
2023/12/18 08:42:01;;;;;;;27.63;11.27;;;;;;;;;;5252456;22;20041;-90
2023/12/18 08:44:46;;;;;;;38.08;10.85;;;;;;;;;;5045278;28;20033;-90
2023/12/18 08:52:44;;;;;;;32.58;11.07;;;;;;;;;;5307921;22;20096;-90
2023/12/18 08:55:25;;;;;;;39.75;11.45;;;;;;;;;;5046571;28;20537;-91
2023/12/18 08:58:11;;;;;;;30.63;10.88;;;;;;;;;;5047242;28;20516;-91
2023/12/18 09:00:57;;;;;;;26.63;12.70;;;;;;;;;;5043235;28;20051;-91
2023/12/18 17:05:53;;;;;;;35.33;13.48;;;;;;;;;;5314672;23;20050;-94
2023/12/18 17:39:33;;;;;;;39.20;13.35;;;;;;;;;;4983914;28;20227;-91
2023/12/18 17:42:08;;;;;;;34.30;13.60;;;;;;;;;;4969670;28;20073;-92
2023/12/18 17:44:50;;;;;;;33.15;14.93;;;;;;;;;;4971193;28;20055;-93
2023/12/18 17:47:46;;;;;;;35.05;14.48;;;;;;;;;;4975842;28;20031;-92
2023/12/18 17:50:29;;;;;;;30.63;14.43;;;;;;;;;;5053037;23;20289;-91
2023/12/18 17:53:09;;;;;;;80.35;15.02;;;;;;;;;;4987214;28;20046;-92
2023/12/18 18:00:13;;;;;;;31.90;13.32;;;;;;;;;;5057613;27;20045;-92
2023/12/18 18:03:23;;;;;;;30.55;13.75;;;;;;;;;;5041801;27;24440;-92
2023/12/18 18:06:07;;;;;;;;;;;;;;;;;;5036163;28;20038;-93
2023/12/18 18:08:47;;;;;;;31.98;12.65;;;;;;;;;;5036671;28;19997;-93
2023/12/18 18:11:33;;;;;;;30.58;12.18;;;;;;;;;;5041707;28;20126;-94
2023/12/18 18:14:15;;;;;;;29.85;13.50;;;;;;;;;;5041416;28;20029;-93
2023/12/18 18:16:54;;;;;;;39.28;13.98;;;;;;;;;;5037465;28;20069;-91
2023/12/18 18:19:34;;;;;;;33.95;13.20;;;;;;;;;;5036032;28;20054;-92
2023/12/18 18:22:15;;;;;;;40.17;13.65;;;;;;;;;;5033826;28;20045;-93
2023/12/18 18:24:59;;;;;;;36.75;14.18;;;;;;;;;;5034986;28;20183;-93
2023/12/18 18:27:44;;;;;;;37.42;14.88;;;;;;;;;;5035848;28;20110;-92
2023/12/18 18:30:27;;;;;;;31.58;13.95;;;;;;;;;;5036558;28;20053;-93
2023/12/18 18:33:09;;;;;;;30.13;13.07;;;;;;;;;;5037129;28;20075;-92
2023/12/18 18:35:44;;;;;;;40.22;15.38;;;;;;;;;;5035184;28;20068;-93
2023/12/18 18:38:30;;;;;;;36.20;14.07;;;;;;;;;;5038589;28;20114;-93
2023/12/18 18:41:13;;;;;;;45.75;16.45;;;;;;;;;;5030513;28;20034;-93
2023/12/18 18:44:04;;;;;;;37.88;15.02;;;;;;;;;;5044150;28;20050;-91
2023/12/18 18:47:01;;;;;;;31.35;14.52;;;;;;;;;;5042647;28;20056;-93
2023/12/18 18:49:47;;;;;;;31.92;14.13;;;;;;;;;;5037187;28;20067;-92
2023/12/18 18:58:11;;;;;;;;;;;;;;;;;;;;;
2023/12/18 19:00:59;;;;;;;39.90;13.10;;;;;;;;;;5148125;27;20061;-92
2023/12/18 19:03:44;;;;;;;39.35;14.18;;;;;;;;;;5133116;22;20031;-93
2023/12/18 19:06:47;;;;;;;36.40;14.63;;;;;;;;;;5090614;28;20032;-92
2023/12/18 19:09:38;;;;;;;37.88;14.57;;;;;;;;;;5104612;28;20067;-93
2023/12/18 19:12:29;;;;;;;36.13;13.55;;;;;;;;;;5103572;28;20032;-92
2023/12/18 19:15:16;;;;;;;39.05;13.40;;;;;;;;;;5073162;28;20125;-93
2023/12/18 19:18:01;;;;;;;32.55;13.50;;;;;;;;;;5173503;22;20063;-93
2023/12/18 19:21:02;;;;;;;38.13;15.47;;;;;;;;;;5106437;28;20048;-92
2023/12/18 19:23:54;;;;;;;36.83;14.00;;;;;;;;;;5110501;28;20461;-93
2023/12/18 19:26:36;;;;;;;35.97;13.25;;;;;;;;;;5110147;28;20067;-93
2023/12/18 19:29:17;;;;;;;;;;;;;;;;;;5110244;28;20044;-93
2023/12/18 19:31:59;;;;;;;28.95;13.52;;;;;;;;;;5109590;28;19927;-92
2023/12/18 19:34:42;;;;;;;36.00;15.77;;;;;;;;;;5110866;28;20092;-93
2023/12/18 19:37:31;;;;;;;37.58;14.02;;;;;;;;;;5104977;28;20050;-93
2023/12/18 19:43:14;;;;;;;35.37;14.00;;;;;;;;;;5158100;22;20129;-92
2023/12/18 19:46:10;;;;;;;30.08;14.00;;;;;;;;;;5129544;28;20074;-93
2023/12/18 19:48:44;;;;;;;49.22;15.00;;;;;;;;;;5187570;22;20047;-90
2023/12/18 19:54:41;;;;;;;33.88;14.32;;;;;;;;;;5067922;28;20052;-92
2023/12/18 19:57:40;;;;;;;36.78;17.33;;;;;;;;;;5068325;28;20049;-92
2023/12/18 20:03:36;;;;;;;32.60;13.63;;;;;;;;;;5418856;22;20104;-92
2023/12/18 20:06:18;;;;;;;34.33;13.17;;;;;;;;;;5073845;28;20036;-93
2023/12/18 20:08:58;;;;;;;35.92;14.98;;;;;;;;;;5089283;28;20466;-92
2023/12/18 20:11:42;;;;;;;33.55;14.05;;;;;;;;;;5071810;28;20050;-93
2023/12/18 20:14:34;;;;;;;36.42;15.50;;;;;;;;;;5073586;28;20040;-92
2023/12/18 20:20:18;;;;;;;32.03;13.93;;;;;;;;;;5066234;28;20052;-95
2023/12/18 20:23:02;;;;;;;36.80;13.77;;;;;;;;;;5075757;28;20050;-93
2023/12/18 20:25:44;;;;;;;32.13;14.13;;;;;;;;;;5070906;28;20048;-92
2023/12/18 20:28:51;;;;;;;;;;;;;;;;;;;;;
2023/12/18 20:31:43;;;;;;;36.10;15.32;;;;;;;;;;5073182;28;20029;-92
2023/12/18 20:34:25;;;;;;;27.70;13.25;;;;;;;;;;5070771;28;20072;-93
2023/12/18 20:37:07;;;;;;;36.90;13.40;;;;;;;;;;5072644;28;20032;-91
2023/12/18 20:39:53;;;;;;;40.22;14.60;;;;;;;;;;5065556;28;20044;-93
2023/12/18 20:42:26;;;;;;;27.98;11.63;;;;;;;;;;5068990;28;20048;-92
2023/12/18 20:45:19;;;;;;;23.85;11.98;;;;;;;;;;5297098;22;20074;-91
2023/12/18 20:48:06;;;;;;;32.28;14.20;;;;;;;;;;5075255;28;20052;-93
2023/12/18 20:50:50;;;;;;;34.17;14.02;;;;;;;;;;5309718;22;20047;-92
2023/12/18 20:53:34;;;;;;;33.50;13.60;;;;;;;;;;5113553;28;20047;-92
2023/12/18 20:56:34;;;;;;;40.13;16.05;;;;;;;;;;5111950;28;20107;-93
2023/12/18 20:59:21;;;;;;;37.25;14.18;;;;;;;;;;5106207;28;20110;-92
2023/12/18 21:02:09;;;;;;;32.53;13.80;;;;;;;;;;5111103;28;20091;-93
2023/12/18 21:04:52;;;;;;;35.40;15.73;;;;;;;;;;5124801;28;20035;-92
2023/12/18 21:07:35;;;;;;;34.72;14.10;;;;;;;;;;5111158;28;20046;-93
2023/12/18 21:10:18;;;;;;;32.58;13.52;;;;;;;;;;5109976;28;20061;-94
2023/12/18 21:13:02;;;;;;;32.60;14.40;;;;;;;;;;5110956;28;20191;-93
2023/12/18 21:15:48;;;;;;;34.28;13.27;;;;;;;;;;5107968;28;20062;-94
2023/12/18 21:18:32;;;;;;;42.40;15.52;;;;;;;;;;5111564;28;20073;-93
2023/12/18 21:21:15;;;;;;;35.13;14.52;;;;;;;;;;5113754;27;20027;-93
2023/12/18 21:23:58;;;;;;;33.95;14.07;;;;;;;;;;5114609;27;20032;-93
2023/12/18 21:26:34;;;;;;;41.35;14.80;;;;;;;;;;5110196;28;20047;-93
2023/12/18 21:29:06;;;;;;;29.60;13.75;;;;;;;;;;5125773;27;20136;-92
2023/12/18 21:31:46;;;;;;;38.75;14.05;;;;;;;;;;5107898;28;20234;-93
2023/12/18 21:34:21;;;;;;;34.28;14.07;;;;;;;;;;5124701;28;20464;-92
2023/12/18 21:37:05;;;;;;;29.85;14.18;;;;;;;;;;5110022;28;20113;-93
2023/12/18 21:39:46;;;;;;;29.25;14.05;;;;;;;;;;5112808;28;20041;-92
2023/12/18 21:45:19;;;;;;;33.58;14.45;;;;;;;;;;5176729;22;20063;-93
2023/12/18 21:47:53;;;;;;;30.80;14.18;;;;;;;;;;5110424;28;20052;-92
2023/12/18 21:50:39;;;;;;;31.08;12.43;;;;;;;;;;5109669;28;20194;-92
2023/12/18 21:56:43;;;;;;;34.90;14.25;;;;;;;;;;5126389;27;20042;-93
2023/12/18 21:59:32;;;;;;;30.90;13.07;;;;;;;;;;5126225;28;20035;-93
2023/12/18 22:02:10;;;;;;;39.65;14.02;;;;;;;;;;5109876;28;20058;-93
2023/12/18 22:04:52;;;;;;;34.17;14.35;;;;;;;;;;5107858;28;20035;-92
2023/12/18 22:07:29;;;;;;;32.53;13.95;;;;;;;;;;5109330;28;20081;-91
2023/12/18 22:10:11;;;;;;;35.67;15.55;;;;;;;;;;5106713;28;20121;-93
2023/12/18 22:12:52;;;;;;;26.55;11.35;;;;;;;;;;5113842;28;20087;-93
2023/12/18 22:15:22;;;;;;;42.78;16.42;;;;;;;;;;5109648;28;20063;-90
2023/12/18 22:17:58;;;;;;;31.48;14.95;;;;;;;;;;5108450;28;20067;-92
2023/12/18 22:20:42;;;;;;;37.28;13.75;;;;;;;;;;5123986;27;20047;-92
2023/12/18 22:23:25;;;;;;;31.00;12.70;;;;;;;;;;5108293;28;20060;-93
2023/12/18 22:25:54;;;;;;;33.47;14.00;;;;;;;;;;5106702;28;20044;-93
2023/12/18 22:28:25;;;;;;;35.03;14.52;;;;;;;;;;5107048;28;20094;-92
2023/12/18 22:31:06;;;;;;;31.45;13.10;;;;;;;;;;5105173;28;20193;-92
2023/12/18 22:33:36;;;;;;;35.65;15.88;;;;;;;;;;5106214;28;20100;-92
2023/12/18 22:36:18;;;;;;;32.58;13.98;;;;;;;;;;5124413;28;20134;-92
2023/12/18 22:38:59;;;;;;;37.58;14.45;;;;;;;;;;5107972;28;20038;-93
2023/12/18 22:41:41;;;;;;;36.20;15.60;;;;;;;;;;5108210;28;20069;-92
2023/12/18 22:44:13;;;;;;;34.50;15.48;;;;;;;;;;5106475;28;20079;-93
2023/12/18 22:46:56;;;;;;;34.30;12.68;;;;;;;;;;5122756;28;20039;-92
2023/12/18 22:49:38;;;;;;;38.38;13.68;;;;;;;;;;5111006;28;20044;-92
2023/12/18 22:52:12;;;;;;;30.55;13.07;;;;;;;;;;5112232;28;20115;-92
2023/12/18 22:55:00;;;;;;;29.92;14.40;;;;;;;;;;5116118;28;20026;-92
2023/12/18 22:57:46;;;;;;;34.65;14.15;;;;;;;;;;5114872;28;20383;-92
2023/12/18 23:00:29;;;;;;;30.65;13.90;;;;;;;;;;5113495;28;20048;-93
2023/12/18 23:03:03;;;;;;;32.05;14.05;;;;;;;;;;5112955;28;20089;-93
2023/12/18 23:05:40;;;;;;;36.33;13.90;;;;;;;;;;5114251;28;20111;-92
2023/12/18 23:08:19;;;;;;;26.33;13.63;;;;;;;;;;5113678;28;20047;-92
2023/12/18 23:15:59;;;;;;;36.57;16.00;;;;;;;;;;5248282;22;20103;-92
2023/12/18 23:18:45;;;;;;;32.05;12.77;;;;;;;;;;5072945;28;20049;-92
2023/12/18 23:21:17;;;;;;;33.85;12.95;;;;;;;;;;5070978;28;20048;-91
2023/12/18 23:23:56;;;;;;;33.95;13.02;;;;;;;;;;5071754;28;20052;-92
2023/12/18 23:26:32;;;;;;;28.33;11.30;;;;;;;;;;5088690;28;20080;-92
2023/12/18 23:29:13;;;;;;;28.90;14.00;;;;;;;;;;5071166;28;20106;-92
2023/12/18 23:31:56;;;;;;;36.78;14.88;;;;;;;;;;5072668;28;20143;-90
2023/12/18 23:34:39;;;;;;;28.58;12.38;;;;;;;;;;5073646;28;20048;-93
2023/12/18 23:37:21;;;;;;;25.13;12.75;;;;;;;;;;5076491;28;20020;-92
2023/12/18 23:39:52;;;;;;;38.53;13.32;;;;;;;;;;5072141;28;20048;-93
2023/12/18 23:42:34;;;;;;;39.92;13.98;;;;;;;;;;5072940;28;20273;-93
2023/12/18 23:45:18;;;;;;;37.50;14.52;;;;;;;;;;5073061;28;20044;-92
2023/12/18 23:48:00;;;;;;;30.98;13.55;;;;;;;;;;5071832;28;20060;-92
2023/12/18 23:50:44;;;;;;;53.40;15.90;;;;;;;;;;5089128;28;20063;-92
2023/12/18 23:53:18;;;;;;;45.20;14.00;;;;;;;;;;5072566;28;20120;-93
2023/12/18 23:56:05;;;;;;;46.00;14.80;;;;;;;;;;5086838;28;20066;-93
2023/12/18 23:58:52;;;;;;;31.75;11.82;;;;;;;;;;5072398;28;20075;-92
